Terminal Aerodrome Forecast
Issued by NWS

Home | Current Version | Previous Version | Text Only | Print | Product List | Glossary On
Versions: 1 2 3 4 5 6 7 8 9 10 11 12 13 14 15 16 17 18 19 20 21 22 23 24 25 26 27 28 29 30 31
000
FTUS43 KAPX 182010 AAA
TAFTVC
TAF AMD
KTVC 182010Z 1820/1918 35005KT P6SM OVC018
     FM182100 35004KT P6SM SCT035
     FM190000 35003KT P6SM FEW035=

USA.gov is the U.S. government's official web portal to all federal, state and local government web resources and services.